createdAt,value
2022-12-31T09:47:10.315Z,23.93
2022-12-31T09:49:28.226Z,26.73
2022-12-31T09:51:55.171Z,20.08
2022-12-31T09:54:15.497Z,18.50
2022-12-31T09:56:26.815Z,19.17
2022-12-31T09:58:35.431Z,20.62
2022-12-31T10:00:47.250Z,19.23
2022-12-31T10:03:00.745Z,19.87
2022-12-31T10:05:40.906Z,19.15
2022-12-31T10:08:10.742Z,19.42
2022-12-31T10:10:22.594Z,18.62
2022-12-31T10:12:27.584Z,20.10
2022-12-31T10:14:57.558Z,19.62
2022-12-31T10:17:06.002Z,21.02
2022-12-31T10:19:59.969Z,20.17
2022-12-31T10:22:24.686Z,20.15
2022-12-31T10:24:59.508Z,20.90
2022-12-31T10:27:27.950Z,20.00
2022-12-31T10:29:43.075Z,23.83
2022-12-31T10:32:16.368Z,20.60
2022-12-31T10:34:46.347Z,20.30
2022-12-31T10:36:59.383Z,20.60
2022-12-31T10:39:14.363Z,17.48
2022-12-31T10:41:55.537Z,19.42
2022-12-31T10:44:15.805Z,19.23
2022-12-31T10:46:44.490Z,17.85
2022-12-31T10:49:11.839Z,20.10
2022-12-31T10:51:50.501Z,21.75
2022-12-31T10:54:13.837Z,21.50
2022-12-31T10:57:07.084Z,21.02
2022-12-31T10:59:27.979Z,21.75
2022-12-31T11:03:51.696Z,20.17
2022-12-31T11:08:30.483Z,21.60
2022-12-31T11:10:49.446Z,26.62
2022-12-31T11:13:06.404Z,22.20
2022-12-31T11:15:21.207Z,22.60
2022-12-31T11:17:38.670Z,23.25
2022-12-31T11:19:53.382Z,22.65
2022-12-31T11:22:05.087Z,23.02
2022-12-31T11:24:25.737Z,22.48
2022-12-31T11:26:27.990Z,22.52
2022-12-31T11:28:39.275Z,23.50
2022-12-31T11:30:41.583Z,23.67
2022-12-31T11:33:03.772Z,23.45
2022-12-31T11:35:18.389Z,25.37
2022-12-31T11:37:39.195Z,23.50
2022-12-31T11:39:41.539Z,23.20
2022-12-31T11:41:52.283Z,21.75
2022-12-31T11:44:06.171Z,25.30
2022-12-31T11:46:43.526Z,22.27
2022-12-31T11:49:07.330Z,23.27
2022-12-31T11:51:44.261Z,29.83
2022-12-31T11:53:57.609Z,21.92
2022-12-31T11:56:18.511Z,21.33
2022-12-31T11:58:22.282Z,20.83
2022-12-31T12:00:28.182Z,21.40
2022-12-31T12:02:37.145Z,20.40
2022-12-31T12:04:39.626Z,22.37
2022-12-31T12:06:43.625Z,22.80
2022-12-31T12:08:46.763Z,21.62
2022-12-31T12:10:52.744Z,20.27
2022-12-31T12:12:56.890Z,22.55
2022-12-31T12:14:59.493Z,23.10
2022-12-31T12:17:05.552Z,22.90
2022-12-31T12:19:18.114Z,21.62
2022-12-31T12:21:23.386Z,24.67
2022-12-31T12:23:26.847Z,24.52
2022-12-31T12:25:41.702Z,24.20
2022-12-31T12:27:44.447Z,23.60
2022-12-31T12:29:48.136Z,24.80
2022-12-31T12:32:01.261Z,22.45
2022-12-31T12:34:05.019Z,23.70
2022-12-31T12:36:15.704Z,24.08
2022-12-31T12:38:23.237Z,24.73
2022-12-31T12:40:33.383Z,26.60
2022-12-31T12:42:36.354Z,24.67
2022-12-31T12:44:40.235Z,25.05
2022-12-31T12:46:50.037Z,24.48
2022-12-31T12:48:57.744Z,24.40
2022-12-31T12:51:00.476Z,24.02
2022-12-31T12:53:13.281Z,24.63
2022-12-31T12:55:33.857Z,22.42
2022-12-31T12:57:49.261Z,23.42
2022-12-31T13:00:07.729Z,24.33
2022-12-31T13:02:25.091Z,24.40
2022-12-31T13:04:52.416Z,21.37
2022-12-31T13:07:01.037Z,22.65
2022-12-31T13:09:22.536Z,23.90
2022-12-31T13:11:46.275Z,22.23
2022-12-31T13:14:01.609Z,21.15
2022-12-31T13:16:41.971Z,23.17
2022-12-31T13:19:09.003Z,23.20
2022-12-31T13:21:21.960Z,23.55
2022-12-31T13:23:34.817Z,22.65
2022-12-31T13:26:04.277Z,23.23
2022-12-31T13:28:13.068Z,24.27
2022-12-31T13:30:19.952Z,21.67
2022-12-31T13:32:32.624Z,23.60
2022-12-31T13:34:41.723Z,25.00
2022-12-31T13:36:47.604Z,23.83
2022-12-31T13:38:56.104Z,24.40
2022-12-31T13:41:19.385Z,24.12
2022-12-31T13:43:48.864Z,23.00
2022-12-31T13:46:28.194Z,22.37
2022-12-31T13:48:37.492Z,22.05
2022-12-31T13:50:51.391Z,22.73
2022-12-31T13:53:27.115Z,24.10
2022-12-31T13:55:50.824Z,21.77
2022-12-31T13:58:14.944Z,21.08
2022-12-31T14:00:53.362Z,21.05
2022-12-31T14:03:08.573Z,20.52
2022-12-31T14:05:24.058Z,21.65
2022-12-31T14:07:38.978Z,21.48
2022-12-31T14:09:46.727Z,22.13
2022-12-31T14:12:04.349Z,20.92
2022-12-31T14:14:28.387Z,21.77
2022-12-31T14:16:43.269Z,21.65
2022-12-31T14:19:05.356Z,22.42
2022-12-31T14:21:14.533Z,20.75
2022-12-31T14:23:37.136Z,21.77
2022-12-31T14:26:11.611Z,21.17
2022-12-31T14:28:21.619Z,21.52
2022-12-31T14:30:31.025Z,20.77
2022-12-31T14:33:08.608Z,21.15
2022-12-31T14:35:29.042Z,20.85
2022-12-31T14:37:49.251Z,20.35
2022-12-31T14:39:57.849Z,22.58
2022-12-31T14:42:23.609Z,21.12
2022-12-31T14:44:32.293Z,20.37
2022-12-31T14:47:07.763Z,20.88
2022-12-31T14:49:44.542Z,20.00
2022-12-31T14:51:47.235Z,19.20
2022-12-31T14:53:54.760Z,21.12
2022-12-31T14:56:03.449Z,19.30
2022-12-31T14:58:39.805Z,19.17
2022-12-31T15:01:04.506Z,18.33
2022-12-31T15:03:16.349Z,20.10
2022-12-31T15:05:22.245Z,20.25
2022-12-31T15:07:33.883Z,20.52
2022-12-31T15:10:04.850Z,19.40
2022-12-31T15:12:42.121Z,22.62
2022-12-31T15:14:53.819Z,19.33
2022-12-31T15:17:25.653Z,19.25
2022-12-31T15:19:52.626Z,18.98
2022-12-31T15:22:28.373Z,19.25
2022-12-31T15:24:30.936Z,17.92
2022-12-31T15:26:52.636Z,18.42
2022-12-31T15:29:19.545Z,23.95
2022-12-31T15:31:22.104Z,19.05
2022-12-31T15:33:31.085Z,19.20
2022-12-31T15:35:49.993Z,17.77
2022-12-31T15:38:01.386Z,18.73
2022-12-31T15:40:16.253Z,19.37
2022-12-31T15:42:47.271Z,20.37
2022-12-31T15:45:02.308Z,18.98
2022-12-31T15:47:16.153Z,18.25
2022-12-31T15:49:23.310Z,18.35
2022-12-31T15:51:44.209Z,18.27
2022-12-31T15:53:53.181Z,17.37
2022-12-31T15:55:58.096Z,18.90
2022-12-31T15:58:12.407Z,18.70
2022-12-31T16:00:23.915Z,21.23
2022-12-31T16:02:28.311Z,19.40
2022-12-31T16:04:34.771Z,19.90
2022-12-31T16:06:38.784Z,18.33
2022-12-31T16:08:46.262Z,18.27
2022-12-31T16:10:48.992Z,17.00
2022-12-31T16:12:53.049Z,19.48
2022-12-31T16:14:58.539Z,19.10
2022-12-31T16:17:01.621Z,20.15
2022-12-31T16:19:03.943Z,18.52
2022-12-31T16:21:22.590Z,18.50
2022-12-31T16:23:27.560Z,21.20
2022-12-31T16:25:33.531Z,20.55
2022-12-31T16:27:36.637Z,23.12
2022-12-31T16:29:44.469Z,23.35
2022-12-31T16:31:48.849Z,21.67
2022-12-31T16:33:51.619Z,20.27
2022-12-31T16:35:59.505Z,20.25
2022-12-31T16:38:07.920Z,22.30
2022-12-31T16:40:20.805Z,20.70
2022-12-31T16:42:28.378Z,18.85
2022-12-31T16:44:30.873Z,19.65
2022-12-31T16:46:33.650Z,20.95
2022-12-31T16:48:37.736Z,21.48
2022-12-31T16:50:44.869Z,20.00
2022-12-31T16:52:50.602Z,20.42
2022-12-31T16:54:54.277Z,21.15
2022-12-31T16:56:58.871Z,22.02
2022-12-31T16:59:17.585Z,23.15
2022-12-31T17:01:27.893Z,22.92
2022-12-31T17:03:30.532Z,22.17
2022-12-31T17:05:36.229Z,22.50
2022-12-31T17:07:42.452Z,22.77
2022-12-31T17:09:44.745Z,23.55
2022-12-31T17:12:07.737Z,31.50
2022-12-31T17:14:15.487Z,54.70
2022-12-31T17:16:18.532Z,30.85
2022-12-31T17:18:24.296Z,37.88
2022-12-31T17:20:29.781Z,50.63
2022-12-31T17:22:41.791Z,46.65
2022-12-31T17:24:48.690Z,33.22
2022-12-31T17:26:52.408Z,32.13
2022-12-31T17:28:57.766Z,26.02
2022-12-31T17:31:02.182Z,27.52
2022-12-31T17:33:22.647Z,29.75
2022-12-31T17:35:42.661Z,30.52
2022-12-31T17:37:45.648Z,26.63
2022-12-31T17:39:53.621Z,24.70
2022-12-31T17:41:58.158Z,24.35
2022-12-31T17:44:00.869Z,24.67
2022-12-31T17:46:10.740Z,25.17
2022-12-31T17:48:16.963Z,23.60
2022-12-31T17:50:25.837Z,26.17
2022-12-31T17:52:28.427Z,29.27
2022-12-31T17:54:30.779Z,29.40
2022-12-31T17:56:33.397Z,37.65
2022-12-31T17:58:44.971Z,28.27
2022-12-31T18:00:47.484Z,28.20
2022-12-31T18:02:50.270Z,26.83
2022-12-31T18:04:53.224Z,27.75
2022-12-31T18:06:55.844Z,28.92
2022-12-31T18:08:58.550Z,28.20
2022-12-31T18:11:00.946Z,28.58
2022-12-31T18:13:05.902Z,29.67
2022-12-31T18:15:09.029Z,28.90
2022-12-31T18:17:15.436Z,27.73
2022-12-31T18:19:45.779Z,28.48
2022-12-31T18:21:41.461Z,25.65
2022-12-31T18:23:46.311Z,28.50
2022-12-31T18:25:48.908Z,36.25
2022-12-31T18:27:52.210Z,30.50
2022-12-31T18:29:59.094Z,28.55
2022-12-31T18:32:04.995Z,26.43
2022-12-31T18:34:12.059Z,31.12
2022-12-31T18:36:16.211Z,42.60
2022-12-31T18:38:19.852Z,45.80
2022-12-31T18:40:22.561Z,33.03
2022-12-31T18:42:28.424Z,27.90
2022-12-31T18:44:30.823Z,28.35
2022-12-31T18:46:33.632Z,28.58
2022-12-31T18:48:36.828Z,28.77
2022-12-31T18:50:41.139Z,29.83
2022-12-31T18:52:44.277Z,29.05
2022-12-31T18:54:46.669Z,28.77
2022-12-31T18:56:53.933Z,36.80
2022-12-31T18:58:59.935Z,37.50
2022-12-31T19:01:02.502Z,34.42
2022-12-31T19:03:07.976Z,64.37
2022-12-31T19:05:21.571Z,33.38
2022-12-31T19:07:23.909Z,31.02
2022-12-31T19:11:49.079Z,32.85
2022-12-31T19:13:51.475Z,36.22
2022-12-31T19:15:55.577Z,46.75
2022-12-31T19:17:59.171Z,35.53
2022-12-31T19:20:04.444Z,32.22
2022-12-31T19:22:06.889Z,31.40
2022-12-31T19:24:19.466Z,35.50
2022-12-31T19:26:22.792Z,37.33
2022-12-31T19:28:27.181Z,37.60
2022-12-31T19:30:33.379Z,36.30
2022-12-31T19:32:35.780Z,50.22
2022-12-31T19:34:38.106Z,37.17
2022-12-31T19:36:44.299Z,35.17
2022-12-31T19:38:47.194Z,36.40
2022-12-31T19:40:50.595Z,37.28
2022-12-31T19:42:54.909Z,36.38
2022-12-31T19:44:57.221Z,35.75
2022-12-31T19:46:59.618Z,39.50
2022-12-31T19:49:02.274Z,39.63
2022-12-31T19:51:09.329Z,40.72
2022-12-31T19:53:15.112Z,38.17
2022-12-31T19:55:19.584Z,40.35
2022-12-31T19:57:21.978Z,39.22
2022-12-31T19:59:24.343Z,38.80
2022-12-31T20:01:27.016Z,43.03
2022-12-31T20:03:30.058Z,47.17
2022-12-31T20:05:32.457Z,39.28
2022-12-31T20:07:34.870Z,38.40
2022-12-31T20:09:37.518Z,43.97
2022-12-31T20:11:39.895Z,134.82
2022-12-31T20:13:42.640Z,55.20
2022-12-31T20:15:47.903Z,84.75
2022-12-31T20:17:50.318Z,38.72
2022-12-31T20:19:52.737Z,46.47
2022-12-31T20:21:55.384Z,42.40
2022-12-31T20:23:57.698Z,40.45
2022-12-31T20:26:00.947Z,41.28
2022-12-31T20:28:03.806Z,51.05
2022-12-31T20:30:07.110Z,47.08
2022-12-31T20:32:09.533Z,48.05
2022-12-31T20:34:12.447Z,50.10
2022-12-31T20:36:16.559Z,53.95
2022-12-31T20:38:18.899Z,48.65
2022-12-31T20:40:21.507Z,48.83
2022-12-31T20:42:23.901Z,70.18
2022-12-31T20:44:26.225Z,60.67
2022-12-31T20:46:30.547Z,62.65
2022-12-31T20:48:32.904Z,60.50
2022-12-31T20:50:35.792Z,54.30
2022-12-31T20:52:38.440Z,50.63
2022-12-31T20:54:40.785Z,49.70
2022-12-31T20:56:43.217Z,52.67
2022-12-31T20:58:46.068Z,50.40
2022-12-31T21:00:50.133Z,49.10
2022-12-31T21:03:03.871Z,109.70
2022-12-31T21:05:11.337Z,48.42
2022-12-31T21:07:13.957Z,51.80
2022-12-31T21:09:16.304Z,45.38
2022-12-31T21:11:37.301Z,45.95
2022-12-31T21:13:39.791Z,42.92
2022-12-31T21:15:42.508Z,42.85
2022-12-31T21:17:45.469Z,45.10
2022-12-31T21:19:47.820Z,51.20
2022-12-31T21:21:50.166Z,52.10
2022-12-31T21:23:53.256Z,51.75
2022-12-31T21:25:55.544Z,130.25
2022-12-31T21:27:57.953Z,60.63
2022-12-31T21:32:22.863Z,51.70
2022-12-31T21:34:25.230Z,49.08
2022-12-31T21:36:27.978Z,49.40
2022-12-31T21:38:30.364Z,47.03
2022-12-31T21:40:33.193Z,49.05
2022-12-31T21:42:35.881Z,49.42
2022-12-31T21:44:38.215Z,43.45
2022-12-31T21:46:54.516Z,42.60
2022-12-31T21:49:03.538Z,41.00
2022-12-31T21:51:09.635Z,41.22
2022-12-31T21:53:12.525Z,41.78
2022-12-31T21:55:33.720Z,39.65
2022-12-31T21:57:59.045Z,38.45
2022-12-31T22:00:41.021Z,36.88
2022-12-31T22:02:59.699Z,36.72
2022-12-31T22:05:04.163Z,35.50
2022-12-31T22:07:10.931Z,37.83
2022-12-31T22:09:13.611Z,37.53
2022-12-31T22:11:17.916Z,37.60
2022-12-31T22:13:20.710Z,41.08
2022-12-31T22:15:23.353Z,39.10
2022-12-31T22:17:25.730Z,39.97
2022-12-31T22:19:28.006Z,38.83
2022-12-31T22:21:30.923Z,39.17
2022-12-31T22:23:34.640Z,62.30
2022-12-31T22:25:38.415Z,44.97
2022-12-31T22:27:41.137Z,40.35
2022-12-31T22:29:43.565Z,41.55
2022-12-31T22:31:45.990Z,40.55
2022-12-31T22:33:48.903Z,42.40
2022-12-31T22:36:06.273Z,40.72
2022-12-31T22:38:12.148Z,37.80
2022-12-31T22:40:15.300Z,40.47
2022-12-31T22:42:17.664Z,39.60
2022-12-31T22:44:20.009Z,45.83
2022-12-31T22:46:25.589Z,52.13
2022-12-31T22:48:28.154Z,68.18
2022-12-31T22:50:30.459Z,62.47
2022-12-31T22:52:33.118Z,73.10
2022-12-31T22:54:35.755Z,75.62
2022-12-31T22:56:38.062Z,60.03
2022-12-31T22:58:41.017Z,57.90
2022-12-31T23:00:43.353Z,52.67
2022-12-31T23:02:46.255Z,56.85
2022-12-31T23:04:49.342Z,55.20
2022-12-31T23:06:51.753Z,49.40
2022-12-31T23:09:13.184Z,49.10
2022-12-31T23:11:15.791Z,43.60
2022-12-31T23:13:36.581Z,47.88
2022-12-31T23:15:57.420Z,72.03
2022-12-31T23:20:42.623Z,76.95
2022-12-31T23:23:04.562Z,65.57
2022-12-31T23:25:07.486Z,72.60
2022-12-31T23:27:11.303Z,69.43
2022-12-31T23:29:13.618Z,61.65
2022-12-31T23:31:16.306Z,61.33
2022-12-31T23:33:24.395Z,59.83
2022-12-31T23:35:26.797Z,52.08
2022-12-31T23:37:29.484Z,53.58
2022-12-31T23:39:31.990Z,50.47
2022-12-31T23:41:34.258Z,53.95
2022-12-31T23:43:36.812Z,58.58
2022-12-31T23:45:39.205Z,56.37
2022-12-31T23:47:41.713Z,67.60
2022-12-31T23:49:44.331Z,68.60
2022-12-31T23:51:46.709Z,64.75
2022-12-31T23:53:49.805Z,62.78
2022-12-31T23:55:53.294Z,67.50
2022-12-31T23:57:55.622Z,68.28
2022-12-31T23:59:57.957Z,65.80
